sensor_id;sensor_type;location;lat;lon;timestamp;P1;durP1;ratioP1;P2;durP2;ratioP2
51987;SDS011;38003;52.012;4.346;2023-02-24T00:00:09;9.17;;;2.17;;
51987;SDS011;38003;52.012;4.346;2023-02-24T00:02:58;10.00;;;2.43;;
51987;SDS011;38003;52.012;4.346;2023-02-24T00:05:34;9.10;;;2.23;;
51987;SDS011;38003;52.012;4.346;2023-02-24T00:08:04;7.40;;;2.53;;
51987;SDS011;38003;52.012;4.346;2023-02-24T00:10:34;9.57;;;2.20;;
51987;SDS011;38003;52.012;4.346;2023-02-24T00:13:02;7.60;;;2.10;;
51987;SDS011;38003;52.012;4.346;2023-02-24T00:15:31;6.57;;;2.07;;
51987;SDS011;38003;52.012;4.346;2023-02-24T00:17:59;11.27;;;1.90;;
51987;SDS011;38003;52.012;4.346;2023-02-24T00:20:32;9.37;;;2.23;;
51987;SDS011;38003;52.012;4.346;2023-02-24T00:23:01;8.23;;;2.10;;
51987;SDS011;38003;52.012;4.346;2023-02-24T00:25:29;7.10;;;1.70;;
51987;SDS011;38003;52.012;4.346;2023-02-24T00:27:58;9.23;;;2.10;;
51987;SDS011;38003;52.012;4.346;2023-02-24T00:30:27;7.10;;;1.90;;
51987;SDS011;38003;52.012;4.346;2023-02-24T00:32:58;9.87;;;2.20;;
51987;SDS011;38003;52.012;4.346;2023-02-24T00:35:27;8.97;;;1.87;;
51987;SDS011;38003;52.012;4.346;2023-02-24T00:37:56;10.83;;;1.73;;
51987;SDS011;38003;52.012;4.346;2023-02-24T00:40:24;7.80;;;1.43;;
51987;SDS011;38003;52.012;4.346;2023-02-24T00:42:55;8.13;;;1.40;;
51987;SDS011;38003;52.012;4.346;2023-02-24T00:45:25;6.63;;;1.47;;
51987;SDS011;38003;52.012;4.346;2023-02-24T00:47:56;6.40;;;1.70;;
51987;SDS011;38003;52.012;4.346;2023-02-24T00:50:24;9.07;;;1.70;;
51987;SDS011;38003;52.012;4.346;2023-02-24T00:52:52;5.80;;;1.40;;
51987;SDS011;38003;52.012;4.346;2023-02-24T00:55:20;9.63;;;1.60;;
51987;SDS011;38003;52.012;4.346;2023-02-24T00:57:48;9.77;;;1.77;;
51987;SDS011;38003;52.012;4.346;2023-02-24T01:00:17;9.57;;;1.63;;
51987;SDS011;38003;52.012;4.346;2023-02-24T01:02:47;4.47;;;1.10;;
51987;SDS011;38003;52.012;4.346;2023-02-24T01:05:15;6.93;;;1.50;;
51987;SDS011;38003;52.012;4.346;2023-02-24T01:07:43;7.60;;;1.67;;
51987;SDS011;38003;52.012;4.346;2023-02-24T01:10:11;9.87;;;2.10;;
51987;SDS011;38003;52.012;4.346;2023-02-24T01:12:40;4.20;;;1.20;;
51987;SDS011;38003;52.012;4.346;2023-02-24T01:15:19;10.20;;;2.00;;
51987;SDS011;38003;52.012;4.346;2023-02-24T01:17:49;9.17;;;1.60;;
51987;SDS011;38003;52.012;4.346;2023-02-24T01:20:17;8.30;;;1.50;;
51987;SDS011;38003;52.012;4.346;2023-02-24T01:22:47;6.23;;;1.80;;
51987;SDS011;38003;52.012;4.346;2023-02-24T01:25:16;6.37;;;1.30;;
51987;SDS011;38003;52.012;4.346;2023-02-24T01:27:45;8.40;;;1.70;;
51987;SDS011;38003;52.012;4.346;2023-02-24T01:30:14;8.50;;;1.53;;
51987;SDS011;38003;52.012;4.346;2023-02-24T01:32:44;6.03;;;1.27;;
51987;SDS011;38003;52.012;4.346;2023-02-24T01:35:14;9.27;;;1.47;;
51987;SDS011;38003;52.012;4.346;2023-02-24T01:37:43;6.17;;;1.30;;
51987;SDS011;38003;52.012;4.346;2023-02-24T01:40:12;5.47;;;1.50;;
51987;SDS011;38003;52.012;4.346;2023-02-24T01:42:46;7.93;;;1.60;;
51987;SDS011;38003;52.012;4.346;2023-02-24T01:45:16;9.77;;;1.60;;
51987;SDS011;38003;52.012;4.346;2023-02-24T01:47:44;8.23;;;1.57;;
51987;SDS011;38003;52.012;4.346;2023-02-24T01:50:15;10.17;;;1.70;;
51987;SDS011;38003;52.012;4.346;2023-02-24T01:52:46;9.97;;;1.87;;
51987;SDS011;38003;52.012;4.346;2023-02-24T01:55:17;6.83;;;1.30;;
51987;SDS011;38003;52.012;4.346;2023-02-24T01:57:47;8.47;;;1.70;;
51987;SDS011;38003;52.012;4.346;2023-02-24T02:00:17;6.53;;;1.30;;
51987;SDS011;38003;52.012;4.346;2023-02-24T02:03:06;6.70;;;1.53;;
51987;SDS011;38003;52.012;4.346;2023-02-24T02:05:37;8.70;;;2.23;;
51987;SDS011;38003;52.012;4.346;2023-02-24T02:08:06;6.37;;;1.47;;
51987;SDS011;38003;52.012;4.346;2023-02-24T02:10:35;6.30;;;1.53;;
51987;SDS011;38003;52.012;4.346;2023-02-24T02:13:04;5.53;;;1.40;;
51987;SDS011;38003;52.012;4.346;2023-02-24T02:15:34;8.97;;;1.40;;
51987;SDS011;38003;52.012;4.346;2023-02-24T02:18:05;8.80;;;1.80;;
51987;SDS011;38003;52.012;4.346;2023-02-24T02:20:47;7.47;;;1.10;;
51987;SDS011;38003;52.012;4.346;2023-02-24T02:23:25;8.13;;;1.30;;
51987;SDS011;38003;52.012;4.346;2023-02-24T02:26:06;4.60;;;1.23;;
51987;SDS011;38003;52.012;4.346;2023-02-24T02:28:52;9.47;;;1.40;;
51987;SDS011;38003;52.012;4.346;2023-02-24T02:31:32;6.93;;;1.07;;
51987;SDS011;38003;52.012;4.346;2023-02-24T02:34:20;4.83;;;1.40;;
51987;SDS011;38003;52.012;4.346;2023-02-24T02:36:55;8.90;;;1.87;;
51987;SDS011;38003;52.012;4.346;2023-02-24T02:39:27;7.27;;;1.53;;
51987;SDS011;38003;52.012;4.346;2023-02-24T02:42:00;8.70;;;1.30;;
51987;SDS011;38003;52.012;4.346;2023-02-24T02:44:34;5.97;;;1.40;;
51987;SDS011;38003;52.012;4.346;2023-02-24T02:47:08;6.10;;;1.23;;
51987;SDS011;38003;52.012;4.346;2023-02-24T02:49:40;3.80;;;1.53;;
51987;SDS011;38003;52.012;4.346;2023-02-24T02:52:11;7.97;;;1.10;;
51987;SDS011;38003;52.012;4.346;2023-02-24T02:54:43;6.87;;;1.40;;
51987;SDS011;38003;52.012;4.346;2023-02-24T02:57:15;4.10;;;1.10;;
51987;SDS011;38003;52.012;4.346;2023-02-24T02:59:47;4.90;;;1.10;;
51987;SDS011;38003;52.012;4.346;2023-02-24T03:02:16;6.70;;;1.50;;
51987;SDS011;38003;52.012;4.346;2023-02-24T03:04:48;7.10;;;1.10;;
51987;SDS011;38003;52.012;4.346;2023-02-24T03:07:17;7.00;;;1.13;;
51987;SDS011;38003;52.012;4.346;2023-02-24T03:09:48;4.03;;;1.37;;
51987;SDS011;38003;52.012;4.346;2023-02-24T03:12:18;7.60;;;1.30;;
51987;SDS011;38003;52.012;4.346;2023-02-24T03:14:47;5.27;;;0.97;;
51987;SDS011;38003;52.012;4.346;2023-02-24T03:17:18;8.70;;;1.90;;
51987;SDS011;38003;52.012;4.346;2023-02-24T03:19:49;5.27;;;1.00;;
51987;SDS011;38003;52.012;4.346;2023-02-24T03:22:26;6.23;;;1.30;;
51987;SDS011;38003;52.012;4.346;2023-02-24T03:25:00;7.10;;;0.87;;
51987;SDS011;38003;52.012;4.346;2023-02-24T03:27:30;5.63;;;0.97;;
51987;SDS011;38003;52.012;4.346;2023-02-24T03:30:02;4.93;;;1.13;;
51987;SDS011;38003;52.012;4.346;2023-02-24T03:32:34;4.20;;;1.10;;
51987;SDS011;38003;52.012;4.346;2023-02-24T03:35:11;9.30;;;1.33;;
51987;SDS011;38003;52.012;4.346;2023-02-24T03:37:40;4.83;;;0.90;;
51987;SDS011;38003;52.012;4.346;2023-02-24T03:40:09;4.90;;;1.10;;
51987;SDS011;38003;52.012;4.346;2023-02-24T03:42:40;3.23;;;1.03;;
51987;SDS011;38003;52.012;4.346;2023-02-24T03:45:10;5.83;;;0.70;;
51987;SDS011;38003;52.012;4.346;2023-02-24T03:47:41;6.47;;;1.00;;
51987;SDS011;38003;52.012;4.346;2023-02-24T03:50:13;3.00;;;0.70;;
51987;SDS011;38003;52.012;4.346;2023-02-24T03:52:42;2.80;;;0.67;;
51987;SDS011;38003;52.012;4.346;2023-02-24T03:55:17;5.90;;;1.20;;
51987;SDS011;38003;52.012;4.346;2023-02-24T03:57:54;5.83;;;1.00;;
51987;SDS011;38003;52.012;4.346;2023-02-24T04:00:27;4.03;;;1.00;;
51987;SDS011;38003;52.012;4.346;2023-02-24T04:03:01;5.00;;;0.90;;
51987;SDS011;38003;52.012;4.346;2023-02-24T04:05:34;7.00;;;1.37;;
51987;SDS011;38003;52.012;4.346;2023-02-24T04:08:05;3.53;;;0.97;;
51987;SDS011;38003;52.012;4.346;2023-02-24T04:10:35;3.27;;;0.80;;
51987;SDS011;38003;52.012;4.346;2023-02-24T04:13:07;6.97;;;0.90;;
51987;SDS011;38003;52.012;4.346;2023-02-24T04:15:37;7.23;;;0.80;;
51987;SDS011;38003;52.012;4.346;2023-02-24T04:18:10;5.03;;;1.17;;
51987;SDS011;38003;52.012;4.346;2023-02-24T04:20:42;5.60;;;1.03;;
51987;SDS011;38003;52.012;4.346;2023-02-24T04:23:15;8.30;;;1.17;;
51987;SDS011;38003;52.012;4.346;2023-02-24T04:25:45;3.37;;;0.93;;
51987;SDS011;38003;52.012;4.346;2023-02-24T04:28:14;6.23;;;1.30;;
51987;SDS011;38003;52.012;4.346;2023-02-24T04:30:44;5.37;;;1.43;;
51987;SDS011;38003;52.012;4.346;2023-02-24T04:33:14;5.40;;;1.43;;
51987;SDS011;38003;52.012;4.346;2023-02-24T04:35:44;8.90;;;1.97;;
51987;SDS011;38003;52.012;4.346;2023-02-24T04:38:12;6.63;;;1.90;;
51987;SDS011;38003;52.012;4.346;2023-02-24T04:40:41;8.23;;;1.53;;
51987;SDS011;38003;52.012;4.346;2023-02-24T04:43:09;6.13;;;1.97;;
51987;SDS011;38003;52.012;4.346;2023-02-24T04:45:38;6.50;;;2.07;;
51987;SDS011;38003;52.012;4.346;2023-02-24T04:48:06;7.50;;;2.03;;
51987;SDS011;38003;52.012;4.346;2023-02-24T04:50:38;6.53;;;1.53;;
51987;SDS011;38003;52.012;4.346;2023-02-24T04:53:10;7.97;;;2.10;;
51987;SDS011;38003;52.012;4.346;2023-02-24T04:55:39;7.07;;;1.80;;
51987;SDS011;38003;52.012;4.346;2023-02-24T04:58:08;6.63;;;1.87;;
51987;SDS011;38003;52.012;4.346;2023-02-24T05:00:37;4.27;;;1.80;;
51987;SDS011;38003;52.012;4.346;2023-02-24T05:03:07;7.03;;;1.97;;
51987;SDS011;38003;52.012;4.346;2023-02-24T05:05:37;6.10;;;1.90;;
51987;SDS011;38003;52.012;4.346;2023-02-24T05:08:09;7.63;;;2.20;;
51987;SDS011;38003;52.012;4.346;2023-02-24T05:10:41;7.93;;;1.80;;
51987;SDS011;38003;52.012;4.346;2023-02-24T05:13:11;8.73;;;2.03;;
51987;SDS011;38003;52.012;4.346;2023-02-24T05:15:40;4.00;;;1.73;;
51987;SDS011;38003;52.012;4.346;2023-02-24T05:18:10;7.73;;;1.90;;
51987;SDS011;38003;52.012;4.346;2023-02-24T05:20:40;9.47;;;1.90;;
51987;SDS011;38003;52.012;4.346;2023-02-24T05:23:29;5.87;;;1.80;;
51987;SDS011;38003;52.012;4.346;2023-02-24T05:25:59;5.67;;;1.67;;
51987;SDS011;38003;52.012;4.346;2023-02-24T05:28:28;8.10;;;2.07;;
51987;SDS011;38003;52.012;4.346;2023-02-24T05:31:02;7.43;;;1.83;;
51987;SDS011;38003;52.012;4.346;2023-02-24T05:33:33;9.63;;;2.00;;
51987;SDS011;38003;52.012;4.346;2023-02-24T05:36:03;8.07;;;2.00;;
51987;SDS011;38003;52.012;4.346;2023-02-24T05:38:33;5.70;;;1.55;;
51987;SDS011;38003;52.012;4.346;2023-02-24T05:41:04;7.50;;;1.93;;
51987;SDS011;38003;52.012;4.346;2023-02-24T05:43:33;9.73;;;2.00;;
51987;SDS011;38003;52.012;4.346;2023-02-24T05:46:04;6.00;;;2.10;;
51987;SDS011;38003;52.012;4.346;2023-02-24T05:48:32;13.20;;;2.23;;
51987;SDS011;38003;52.012;4.346;2023-02-24T05:51:01;7.10;;;2.00;;
51987;SDS011;38003;52.012;4.346;2023-02-24T05:53:34;6.20;;;1.70;;
51987;SDS011;38003;52.012;4.346;2023-02-24T05:56:06;9.63;;;2.27;;
51987;SDS011;38003;52.012;4.346;2023-02-24T05:58:35;9.73;;;1.93;;
51987;SDS011;38003;52.012;4.346;2023-02-24T06:01:08;6.27;;;1.77;;
51987;SDS011;38003;52.012;4.346;2023-02-24T06:03:41;8.67;;;2.37;;
51987;SDS011;38003;52.012;4.346;2023-02-24T06:06:13;8.60;;;1.83;;
51987;SDS011;38003;52.012;4.346;2023-02-24T06:08:43;6.77;;;1.63;;
51987;SDS011;38003;52.012;4.346;2023-02-24T06:11:16;9.40;;;2.10;;
51987;SDS011;38003;52.012;4.346;2023-02-24T06:13:46;7.20;;;1.80;;
51987;SDS011;38003;52.012;4.346;2023-02-24T06:16:14;8.50;;;2.20;;
51987;SDS011;38003;52.012;4.346;2023-02-24T06:18:46;9.03;;;1.90;;
51987;SDS011;38003;52.012;4.346;2023-02-24T06:21:14;8.90;;;2.00;;
51987;SDS011;38003;52.012;4.346;2023-02-24T06:23:44;7.23;;;1.83;;
51987;SDS011;38003;52.012;4.346;2023-02-24T06:26:12;9.17;;;1.70;;
51987;SDS011;38003;52.012;4.346;2023-02-24T06:28:44;6.47;;;1.73;;
51987;SDS011;38003;52.012;4.346;2023-02-24T06:31:13;6.13;;;1.53;;
51987;SDS011;38003;52.012;4.346;2023-02-24T06:33:41;8.70;;;1.70;;
51987;SDS011;38003;52.012;4.346;2023-02-24T06:36:10;9.10;;;2.30;;
51987;SDS011;38003;52.012;4.346;2023-02-24T06:38:39;8.03;;;1.90;;
51987;SDS011;38003;52.012;4.346;2023-02-24T06:41:09;11.17;;;1.77;;
51987;SDS011;38003;52.012;4.346;2023-02-24T06:43:37;8.33;;;2.30;;
51987;SDS011;38003;52.012;4.346;2023-02-24T06:46:06;9.13;;;1.77;;
51987;SDS011;38003;52.012;4.346;2023-02-24T06:48:34;8.00;;;1.67;;
51987;SDS011;38003;52.012;4.346;2023-02-24T06:51:04;7.03;;;1.80;;
51987;SDS011;38003;52.012;4.346;2023-02-24T06:53:33;7.90;;;1.90;;
51987;SDS011;38003;52.012;4.346;2023-02-24T06:56:04;12.67;;;2.43;;
51987;SDS011;38003;52.012;4.346;2023-02-24T06:58:42;11.07;;;2.40;;
51987;SDS011;38003;52.012;4.346;2023-02-24T07:01:11;8.53;;;2.23;;
51987;SDS011;38003;52.012;4.346;2023-02-24T07:03:39;12.57;;;2.23;;
51987;SDS011;38003;52.012;4.346;2023-02-24T07:06:13;8.70;;;2.60;;
51987;SDS011;38003;52.012;4.346;2023-02-24T07:08:49;8.60;;;2.00;;
51987;SDS011;38003;52.012;4.346;2023-02-24T07:11:18;10.50;;;1.90;;
51987;SDS011;38003;52.012;4.346;2023-02-24T07:13:48;12.13;;;2.70;;
51987;SDS011;38003;52.012;4.346;2023-02-24T07:16:20;8.23;;;2.00;;
51987;SDS011;38003;52.012;4.346;2023-02-24T07:18:52;6.93;;;1.47;;
51987;SDS011;38003;52.012;4.346;2023-02-24T07:21:22;9.60;;;2.20;;
51987;SDS011;38003;52.012;4.346;2023-02-24T07:23:51;11.97;;;2.33;;
51987;SDS011;38003;52.012;4.346;2023-02-24T07:26:25;6.40;;;1.63;;
51987;SDS011;38003;52.012;4.346;2023-02-24T07:28:56;13.10;;;2.77;;
51987;SDS011;38003;52.012;4.346;2023-02-24T07:31:29;8.30;;;2.20;;
51987;SDS011;38003;52.012;4.346;2023-02-24T07:33:59;8.27;;;2.40;;
51987;SDS011;38003;52.012;4.346;2023-02-24T07:36:27;18.90;;;2.90;;
51987;SDS011;38003;52.012;4.346;2023-02-24T07:38:56;4.70;;;1.87;;
51987;SDS011;38003;52.012;4.346;2023-02-24T07:41:26;9.30;;;2.40;;
51987;SDS011;38003;52.012;4.346;2023-02-24T07:43:58;7.77;;;2.30;;
51987;SDS011;38003;52.012;4.346;2023-02-24T07:46:28;11.60;;;2.67;;
51987;SDS011;38003;52.012;4.346;2023-02-24T07:48:57;12.17;;;3.73;;
51987;SDS011;38003;52.012;4.346;2023-02-24T07:51:26;11.23;;;2.90;;
51987;SDS011;38003;52.012;4.346;2023-02-24T07:53:56;9.23;;;2.67;;
51987;SDS011;38003;52.012;4.346;2023-02-24T07:56:25;9.53;;;2.60;;
51987;SDS011;38003;52.012;4.346;2023-02-24T07:58:56;13.03;;;2.43;;
51987;SDS011;38003;52.012;4.346;2023-02-24T08:01:27;11.20;;;2.50;;
51987;SDS011;38003;52.012;4.346;2023-02-24T08:03:56;7.53;;;1.50;;
51987;SDS011;38003;52.012;4.346;2023-02-24T08:06:29;8.47;;;2.17;;
51987;SDS011;38003;52.012;4.346;2023-02-24T08:09:03;11.27;;;2.40;;
51987;SDS011;38003;52.012;4.346;2023-02-24T08:11:43;7.97;;;2.43;;
51987;SDS011;38003;52.012;4.346;2023-02-24T08:14:12;7.70;;;2.20;;
51987;SDS011;38003;52.012;4.346;2023-02-24T08:16:42;10.73;;;2.60;;
51987;SDS011;38003;52.012;4.346;2023-02-24T08:19:11;11.43;;;2.70;;
51987;SDS011;38003;52.012;4.346;2023-02-24T08:21:46;6.93;;;2.17;;
51987;SDS011;38003;52.012;4.346;2023-02-24T08:24:15;12.80;;;2.30;;
51987;SDS011;38003;52.012;4.346;2023-02-24T08:26:44;9.97;;;2.20;;
51987;SDS011;38003;52.012;4.346;2023-02-24T08:29:18;11.23;;;2.17;;
51987;SDS011;38003;52.012;4.346;2023-02-24T08:31:48;11.03;;;2.40;;
51987;SDS011;38003;52.012;4.346;2023-02-24T08:34:16;10.20;;;2.23;;
51987;SDS011;38003;52.012;4.346;2023-02-24T08:36:45;10.03;;;2.23;;
51987;SDS011;38003;52.012;4.346;2023-02-24T08:39:20;9.80;;;2.50;;
51987;SDS011;38003;52.012;4.346;2023-02-24T08:41:49;10.40;;;2.30;;
51987;SDS011;38003;52.012;4.346;2023-02-24T08:44:19;10.23;;;2.37;;
51987;SDS011;38003;52.012;4.346;2023-02-24T08:46:49;18.93;;;2.80;;
51987;SDS011;38003;52.012;4.346;2023-02-24T08:49:18;14.40;;;2.80;;
51987;SDS011;38003;52.012;4.346;2023-02-24T08:51:50;9.57;;;2.30;;
51987;SDS011;38003;52.012;4.346;2023-02-24T08:54:20;9.37;;;2.30;;
51987;SDS011;38003;52.012;4.346;2023-02-24T08:56:53;13.60;;;2.50;;
51987;SDS011;38003;52.012;4.346;2023-02-24T08:59:23;11.00;;;2.43;;
51987;SDS011;38003;52.012;4.346;2023-02-24T09:02:06;8.97;;;2.20;;
51987;SDS011;38003;52.012;4.346;2023-02-24T09:04:44;16.13;;;3.50;;
51987;SDS011;38003;52.012;4.346;2023-02-24T09:07:14;8.53;;;2.80;;
51987;SDS011;38003;52.012;4.346;2023-02-24T09:09:43;12.67;;;3.27;;
51987;SDS011;38003;52.012;4.346;2023-02-24T09:12:12;12.53;;;3.30;;
51987;SDS011;38003;52.012;4.346;2023-02-24T09:14:47;12.10;;;3.83;;
51987;SDS011;38003;52.012;4.346;2023-02-24T09:17:17;14.53;;;4.30;;
51987;SDS011;38003;52.012;4.346;2023-02-24T09:19:56;10.67;;;3.87;;
51987;SDS011;38003;52.012;4.346;2023-02-24T09:23:11;11.27;;;5.33;;
51987;SDS011;38003;52.012;4.346;2023-02-24T09:25:45;8.83;;;5.37;;
51987;SDS011;38003;52.012;4.346;2023-02-24T09:28:20;22.93;;;16.57;;
51987;SDS011;38003;52.012;4.346;2023-02-24T09:30:50;25.13;;;22.70;;
51987;SDS011;38003;52.012;4.346;2023-02-24T09:33:24;10.63;;;9.53;;
51987;SDS011;38003;52.012;4.346;2023-02-24T09:35:54;18.17;;;16.27;;
51987;SDS011;38003;52.012;4.346;2023-02-24T09:38:35;27.70;;;25.13;;
51987;SDS011;38003;52.012;4.346;2023-02-24T09:41:22;63.10;;;58.90;;
51987;SDS011;38003;52.012;4.346;2023-02-24T09:43:59;88.87;;;84.17;;
51987;SDS011;38003;52.012;4.346;2023-02-24T09:46:30;134.37;;;127.93;;
51987;SDS011;38003;52.012;4.346;2023-02-24T09:49:04;125.97;;;119.43;;
51987;SDS011;38003;52.012;4.346;2023-02-24T09:51:34;149.87;;;142.57;;
51987;SDS011;38003;52.012;4.346;2023-02-24T09:54:10;160.63;;;153.10;;
51987;SDS011;38003;52.012;4.346;2023-02-24T09:56:41;150.30;;;143.20;;
51987;SDS011;38003;52.012;4.346;2023-02-24T09:59:11;170.43;;;162.57;;
51987;SDS011;38003;52.012;4.346;2023-02-24T10:01:53;244.43;;;233.97;;
51987;SDS011;38003;52.012;4.346;2023-02-24T10:04:37;210.17;;;200.77;;
51987;SDS011;38003;52.012;4.346;2023-02-24T10:07:07;216.13;;;206.27;;
51987;SDS011;38003;52.012;4.346;2023-02-24T10:09:38;241.00;;;230.47;;
51987;SDS011;38003;52.012;4.346;2023-02-24T10:12:11;276.43;;;264.47;;
51987;SDS011;38003;52.012;4.346;2023-02-24T10:14:44;267.20;;;255.67;;
51987;SDS011;38003;52.012;4.346;2023-02-24T10:17:17;257.30;;;246.50;;
51987;SDS011;38003;52.012;4.346;2023-02-24T10:19:51;230.83;;;221.20;;
51987;SDS011;38003;52.012;4.346;2023-02-24T10:22:37;214.27;;;204.83;;
51987;SDS011;38003;52.012;4.346;2023-02-24T10:25:22;290.70;;;278.40;;
51987;SDS011;38003;52.012;4.346;2023-02-24T10:27:58;234.53;;;224.03;;
51987;SDS011;38003;52.012;4.346;2023-02-24T10:30:29;258.30;;;247.00;;
51987;SDS011;38003;52.012;4.346;2023-02-24T10:33:13;250.53;;;239.73;;
51987;SDS011;38003;52.012;4.346;2023-02-24T10:35:47;312.50;;;299.53;;
51987;SDS011;38003;52.012;4.346;2023-02-24T10:38:15;322.30;;;308.77;;
51987;SDS011;38003;52.012;4.346;2023-02-24T10:40:44;306.00;;;293.33;;
51987;SDS011;38003;52.012;4.346;2023-02-24T10:43:17;287.83;;;276.30;;
51987;SDS011;38003;52.012;4.346;2023-02-24T10:45:46;336.73;;;322.97;;
51987;SDS011;38003;52.012;4.346;2023-02-24T10:48:16;377.13;;;361.80;;
51987;SDS011;38003;52.012;4.346;2023-02-24T10:51:09;442.47;;;424.77;;
51987;SDS011;38003;52.012;4.346;2023-02-24T10:53:46;373.37;;;358.20;;
51987;SDS011;38003;52.012;4.346;2023-02-24T10:56:18;454.07;;;435.77;;
51987;SDS011;38003;52.012;4.346;2023-02-24T10:59:08;467.53;;;449.67;;
51987;SDS011;38003;52.012;4.346;2023-02-24T11:01:55;519.47;;;499.17;;
51987;SDS011;38003;52.012;4.346;2023-02-24T11:04:32;471.30;;;452.80;;
51987;SDS011;38003;52.012;4.346;2023-02-24T11:07:20;563.57;;;541.83;;
51987;SDS011;38003;52.012;4.346;2023-02-24T11:10:11;607.33;;;583.60;;
51987;SDS011;38003;52.012;4.346;2023-02-24T11:12:42;604.00;;;580.43;;
51987;SDS011;38003;52.012;4.346;2023-02-24T11:15:35;699.70;;;670.60;;
51987;SDS011;38003;52.012;4.346;2023-02-24T11:18:22;711.47;;;681.73;;
51987;SDS011;38003;52.012;4.346;2023-02-24T11:20:51;719.40;;;688.97;;
51987;SDS011;38003;52.012;4.346;2023-02-24T11:23:23;717.63;;;686.87;;
51987;SDS011;38003;52.012;4.346;2023-02-24T11:25:52;696.30;;;667.00;;
51987;SDS011;38003;52.012;4.346;2023-02-24T11:28:29;706.43;;;677.33;;
51987;SDS011;38003;52.012;4.346;2023-02-24T11:31:03;653.53;;;627.33;;
51987;SDS011;38003;52.012;4.346;2023-02-24T11:33:35;677.07;;;648.90;;
51987;SDS011;38003;52.012;4.346;2023-02-24T11:36:09;708.37;;;678.53;;
51987;SDS011;38003;52.012;4.346;2023-02-24T11:38:41;657.10;;;630.70;;
51987;SDS011;38003;52.012;4.346;2023-02-24T11:41:13;676.97;;;649.13;;
51987;SDS011;38003;52.012;4.346;2023-02-24T11:43:45;695.70;;;666.70;;
51987;SDS011;38003;52.012;4.346;2023-02-24T11:46:18;670.90;;;642.33;;
51987;SDS011;38003;52.012;4.346;2023-02-24T11:48:48;727.50;;;694.53;;
51987;SDS011;38003;52.012;4.346;2023-02-24T11:51:22;737.30;;;704.53;;
51987;SDS011;38003;52.012;4.346;2023-02-24T11:53:53;740.80;;;706.80;;
51987;SDS011;38003;52.012;4.346;2023-02-24T11:56:24;766.97;;;730.87;;
51987;SDS011;38003;52.012;4.346;2023-02-24T11:58:54;756.60;;;721.47;;
51987;SDS011;38003;52.012;4.346;2023-02-24T12:01:27;775.67;;;738.83;;
51987;SDS011;38003;52.012;4.346;2023-02-24T12:04:00;738.50;;;705.30;;
51987;SDS011;38003;52.012;4.346;2023-02-24T12:06:31;767.17;;;731.03;;
51987;SDS011;38003;52.012;4.346;2023-02-24T12:09:05;773.83;;;737.27;;
51987;SDS011;38003;52.012;4.346;2023-02-24T12:11:37;783.33;;;745.23;;
51987;SDS011;38003;52.012;4.346;2023-02-24T12:14:13;778.20;;;740.70;;
51987;SDS011;38003;52.012;4.346;2023-02-24T12:16:43;812.23;;;770.13;;
51987;SDS011;38003;52.012;4.346;2023-02-24T12:19:14;787.80;;;749.27;;
51987;SDS011;38003;52.012;4.346;2023-02-24T12:21:46;813.10;;;772.40;;
51987;SDS011;38003;52.012;4.346;2023-02-24T12:24:17;812.17;;;771.87;;
51987;SDS011;38003;52.012;4.346;2023-02-24T12:26:49;774.87;;;737.93;;
51987;SDS011;38003;52.012;4.346;2023-02-24T12:29:29;806.83;;;769.13;;
51987;SDS011;38003;52.012;4.346;2023-02-24T12:32:08;810.90;;;770.83;;
51987;SDS011;38003;52.012;4.346;2023-02-24T12:34:42;793.70;;;756.50;;
51987;SDS011;38003;52.012;4.346;2023-02-24T12:37:20;804.23;;;765.90;;
51987;SDS011;38003;52.012;4.346;2023-02-24T12:40:01;808.73;;;769.53;;
51987;SDS011;38003;52.012;4.346;2023-02-24T12:42:32;799.10;;;762.03;;
51987;SDS011;38003;52.012;4.346;2023-02-24T12:45:03;758.13;;;725.53;;
51987;SDS011;38003;52.012;4.346;2023-02-24T12:47:40;733.60;;;701.93;;
51987;SDS011;38003;52.012;4.346;2023-02-24T12:50:17;532.67;;;511.33;;
51987;SDS011;38003;52.012;4.346;2023-02-24T12:52:55;481.70;;;461.67;;
51987;SDS011;38003;52.012;4.346;2023-02-24T12:55:28;652.43;;;624.23;;
51987;SDS011;38003;52.012;4.346;2023-02-24T12:58:00;718.07;;;686.67;;
51987;SDS011;38003;52.012;4.346;2023-02-24T13:00:31;598.60;;;573.87;;
51987;SDS011;38003;52.012;4.346;2023-02-24T13:03:05;239.37;;;228.33;;
51987;SDS011;38003;52.012;4.346;2023-02-24T13:05:36;71.43;;;66.17;;
51987;SDS011;38003;52.012;4.346;2023-02-24T13:08:13;53.20;;;48.33;;
51987;SDS011;38003;52.012;4.346;2023-02-24T13:10:46;40.13;;;35.37;;
51987;SDS011;38003;52.012;4.346;2023-02-24T13:13:18;29.07;;;26.03;;
51987;SDS011;38003;52.012;4.346;2023-02-24T13:15:49;53.07;;;48.67;;
51987;SDS011;38003;52.012;4.346;2023-02-24T13:18:24;39.20;;;35.20;;
51987;SDS011;38003;52.012;4.346;2023-02-24T13:21:02;31.33;;;26.43;;
51987;SDS011;38003;52.012;4.346;2023-02-24T13:23:31;20.33;;;9.87;;
51987;SDS011;38003;52.012;4.346;2023-02-24T13:26:01;20.80;;;6.80;;
51987;SDS011;38003;52.012;4.346;2023-02-24T13:28:30;22.83;;;10.23;;
51987;SDS011;38003;52.012;4.346;2023-02-24T13:31:01;25.40;;;9.63;;
51987;SDS011;38003;52.012;4.346;2023-02-24T13:33:31;24.50;;;7.50;;
51987;SDS011;38003;52.012;4.346;2023-02-24T13:36:10;24.47;;;8.30;;
51987;SDS011;38003;52.012;4.346;2023-02-24T13:38:40;23.13;;;7.90;;
51987;SDS011;38003;52.012;4.346;2023-02-24T13:41:21;27.47;;;6.47;;
51987;SDS011;38003;52.012;4.346;2023-02-24T13:43:54;18.67;;;4.40;;
51987;SDS011;38003;52.012;4.346;2023-02-24T13:46:23;21.00;;;4.47;;
51987;SDS011;38003;52.012;4.346;2023-02-24T13:54:22;19.67;;;3.67;;
51987;SDS011;38003;52.012;4.346;2023-02-24T13:56:54;17.97;;;3.60;;
51987;SDS011;38003;52.012;4.346;2023-02-24T13:59:27;14.10;;;2.50;;
51987;SDS011;38003;52.012;4.346;2023-02-24T14:01:58;21.40;;;3.30;;
51987;SDS011;38003;52.012;4.346;2023-02-24T14:04:27;14.47;;;3.07;;
51987;SDS011;38003;52.012;4.346;2023-02-24T14:06:56;12.53;;;2.70;;
51987;SDS011;38003;52.012;4.346;2023-02-24T14:09:27;12.97;;;2.73;;
51987;SDS011;38003;52.012;4.346;2023-02-24T14:11:59;14.33;;;2.30;;
51987;SDS011;38003;52.012;4.346;2023-02-24T14:14:28;16.07;;;3.70;;
51987;SDS011;38003;52.012;4.346;2023-02-24T14:16:56;15.53;;;3.90;;
51987;SDS011;38003;52.012;4.346;2023-02-24T14:19:25;14.00;;;3.30;;
51987;SDS011;38003;52.012;4.346;2023-02-24T14:21:53;17.73;;;3.40;;
51987;SDS011;38003;52.012;4.346;2023-02-24T14:24:22;18.57;;;3.30;;
51987;SDS011;38003;52.012;4.346;2023-02-24T14:26:52;14.50;;;2.60;;
51987;SDS011;38003;52.012;4.346;2023-02-24T14:29:22;14.73;;;4.07;;
51987;SDS011;38003;52.012;4.346;2023-02-24T14:31:52;15.40;;;2.77;;
51987;SDS011;38003;52.012;4.346;2023-02-24T14:34:21;14.10;;;2.43;;
51987;SDS011;38003;52.012;4.346;2023-02-24T14:36:51;16.23;;;3.17;;
51987;SDS011;38003;52.012;4.346;2023-02-24T14:39:21;11.87;;;2.13;;
51987;SDS011;38003;52.012;4.346;2023-02-24T14:41:49;15.53;;;3.50;;
51987;SDS011;38003;52.012;4.346;2023-02-24T14:44:19;13.37;;;2.87;;
51987;SDS011;38003;52.012;4.346;2023-02-24T14:46:50;12.70;;;2.80;;
51987;SDS011;38003;52.012;4.346;2023-02-24T14:49:20;14.07;;;2.70;;
51987;SDS011;38003;52.012;4.346;2023-02-24T14:51:49;11.90;;;2.33;;
51987;SDS011;38003;52.012;4.346;2023-02-24T14:54:20;13.83;;;2.20;;
51987;SDS011;38003;52.012;4.346;2023-02-24T14:56:50;15.53;;;2.73;;
51987;SDS011;38003;52.012;4.346;2023-02-24T14:59:20;12.17;;;2.57;;
51987;SDS011;38003;52.012;4.346;2023-02-24T15:01:52;10.97;;;2.00;;
51987;SDS011;38003;52.012;4.346;2023-02-24T15:04:24;13.97;;;1.80;;
51987;SDS011;38003;52.012;4.346;2023-02-24T15:06:57;12.37;;;1.90;;